sensor_id;sensor_type;location;lat;lon;timestamp;P1;durP1;ratioP1;P2;durP2;ratioP2
19291;SDS011;9779;51.756;7.450;2022-11-12T00:00:48;5.93;;;5.43;;
19291;SDS011;9779;51.756;7.450;2022-11-12T00:03:15;6.20;;;5.60;;
19291;SDS011;9779;51.756;7.450;2022-11-12T00:05:41;6.07;;;5.57;;
19291;SDS011;9779;51.756;7.450;2022-11-12T00:08:08;5.33;;;4.87;;
19291;SDS011;9779;51.756;7.450;2022-11-12T00:10:34;6.40;;;5.80;;
19291;SDS011;9779;51.756;7.450;2022-11-12T00:13:00;5.50;;;5.10;;
19291;SDS011;9779;51.756;7.450;2022-11-12T00:15:27;8.63;;;6.03;;
19291;SDS011;9779;51.756;7.450;2022-11-12T00:17:54;8.43;;;5.30;;
19291;SDS011;9779;51.756;7.450;2022-11-12T00:20:19;9.23;;;6.17;;
19291;SDS011;9779;51.756;7.450;2022-11-12T00:22:49;7.00;;;6.40;;
19291;SDS011;9779;51.756;7.450;2022-11-12T00:25:14;7.37;;;6.67;;
19291;SDS011;9779;51.756;7.450;2022-11-12T00:27:40;6.80;;;6.20;;
19291;SDS011;9779;51.756;7.450;2022-11-12T00:30:06;6.67;;;6.17;;
19291;SDS011;9779;51.756;7.450;2022-11-12T00:32:34;6.33;;;5.77;;
19291;SDS011;9779;51.756;7.450;2022-11-12T00:35:01;14.00;;;5.77;;
19291;SDS011;9779;51.756;7.450;2022-11-12T00:37:28;5.60;;;4.97;;
19291;SDS011;9779;51.756;7.450;2022-11-12T00:39:53;7.67;;;5.13;;
19291;SDS011;9779;51.756;7.450;2022-11-12T00:42:19;6.07;;;5.57;;
19291;SDS011;9779;51.756;7.450;2022-11-12T00:44:46;7.13;;;4.83;;
19291;SDS011;9779;51.756;7.450;2022-11-12T00:47:15;7.13;;;5.57;;
19291;SDS011;9779;51.756;7.450;2022-11-12T00:49:41;6.03;;;5.47;;
19291;SDS011;9779;51.756;7.450;2022-11-12T00:52:06;6.17;;;4.77;;
19291;SDS011;9779;51.756;7.450;2022-11-12T00:54:32;6.13;;;4.80;;
19291;SDS011;9779;51.756;7.450;2022-11-12T00:56:58;5.73;;;5.30;;
19291;SDS011;9779;51.756;7.450;2022-11-12T00:59:24;5.77;;;5.20;;
19291;SDS011;9779;51.756;7.450;2022-11-12T01:01:50;5.83;;;5.00;;
19291;SDS011;9779;51.756;7.450;2022-11-12T01:04:15;7.40;;;6.20;;
19291;SDS011;9779;51.756;7.450;2022-11-12T01:06:41;9.10;;;6.60;;
19291;SDS011;9779;51.756;7.450;2022-11-12T01:09:08;6.57;;;6.03;;
19291;SDS011;9779;51.756;7.450;2022-11-12T01:11:35;6.77;;;6.20;;
19291;SDS011;9779;51.756;7.450;2022-11-12T01:14:02;10.30;;;7.33;;
19291;SDS011;9779;51.756;7.450;2022-11-12T01:16:30;8.50;;;7.73;;
19291;SDS011;9779;51.756;7.450;2022-11-12T01:19:00;11.83;;;8.13;;
19291;SDS011;9779;51.756;7.450;2022-11-12T01:21:29;7.43;;;6.83;;
19291;SDS011;9779;51.756;7.450;2022-11-12T01:23:56;12.47;;;8.17;;
19291;SDS011;9779;51.756;7.450;2022-11-12T01:26:24;9.17;;;8.17;;
19291;SDS011;9779;51.756;7.450;2022-11-12T01:28:52;7.63;;;6.93;;
19291;SDS011;9779;51.756;7.450;2022-11-12T01:31:20;7.03;;;6.53;;
19291;SDS011;9779;51.756;7.450;2022-11-12T01:33:46;5.83;;;5.40;;
19291;SDS011;9779;51.756;7.450;2022-11-12T01:36:14;6.23;;;5.63;;
19291;SDS011;9779;51.756;7.450;2022-11-12T01:38:43;6.77;;;5.70;;
19291;SDS011;9779;51.756;7.450;2022-11-12T01:41:11;7.23;;;6.00;;
19291;SDS011;9779;51.756;7.450;2022-11-12T01:43:40;6.33;;;5.83;;
19291;SDS011;9779;51.756;7.450;2022-11-12T01:46:15;5.90;;;5.40;;
19291;SDS011;9779;51.756;7.450;2022-11-12T01:48:53;8.43;;;5.90;;
19291;SDS011;9779;51.756;7.450;2022-11-12T01:51:23;6.47;;;5.73;;
19291;SDS011;9779;51.756;7.450;2022-11-12T01:53:55;11.20;;;6.10;;
19291;SDS011;9779;51.756;7.450;2022-11-12T01:56:23;5.80;;;5.40;;
19291;SDS011;9779;51.756;7.450;2022-11-12T01:58:55;6.23;;;5.73;;
19291;SDS011;9779;51.756;7.450;2022-11-12T02:01:26;6.20;;;5.60;;
19291;SDS011;9779;51.756;7.450;2022-11-12T02:03:51;6.40;;;5.80;;
19291;SDS011;9779;51.756;7.450;2022-11-12T02:06:17;12.97;;;5.93;;
19291;SDS011;9779;51.756;7.450;2022-11-12T02:08:44;7.33;;;5.53;;
19291;SDS011;9779;51.756;7.450;2022-11-12T02:11:18;5.40;;;5.00;;
19291;SDS011;9779;51.756;7.450;2022-11-12T02:13:45;5.57;;;5.07;;
19291;SDS011;9779;51.756;7.450;2022-11-12T02:16:24;4.77;;;4.40;;
19291;SDS011;9779;51.756;7.450;2022-11-12T02:19:00;4.40;;;4.00;;
19291;SDS011;9779;51.756;7.450;2022-11-12T02:21:27;4.33;;;4.03;;
19291;SDS011;9779;51.756;7.450;2022-11-12T02:24:35;4.43;;;4.00;;
19291;SDS011;9779;51.756;7.450;2022-11-12T02:26:45;4.20;;;3.93;;
19291;SDS011;9779;51.756;7.450;2022-11-12T02:29:13;8.10;;;4.40;;
19291;SDS011;9779;51.756;7.450;2022-11-12T02:31:39;5.00;;;4.50;;
19291;SDS011;9779;51.756;7.450;2022-11-12T02:34:04;4.93;;;4.53;;
19291;SDS011;9779;51.756;7.450;2022-11-12T02:36:30;4.50;;;4.10;;
19291;SDS011;9779;51.756;7.450;2022-11-12T02:38:57;6.77;;;4.27;;
19291;SDS011;9779;51.756;7.450;2022-11-12T02:41:23;5.40;;;4.10;;
19291;SDS011;9779;51.756;7.450;2022-11-12T02:43:48;7.10;;;4.33;;
19291;SDS011;9779;51.756;7.450;2022-11-12T02:46:17;5.07;;;4.63;;
19291;SDS011;9779;51.756;7.450;2022-11-12T02:48:42;5.63;;;5.23;;
19291;SDS011;9779;51.756;7.450;2022-11-12T02:51:09;5.37;;;4.57;;
19291;SDS011;9779;51.756;7.450;2022-11-12T02:53:35;5.07;;;4.60;;
19291;SDS011;9779;51.756;7.450;2022-11-12T02:56:01;5.33;;;4.70;;
19291;SDS011;9779;51.756;7.450;2022-11-12T02:58:27;16.03;;;4.60;;
19291;SDS011;9779;51.756;7.450;2022-11-12T03:00:53;5.17;;;4.83;;
19291;SDS011;9779;51.756;7.450;2022-11-12T03:03:19;8.00;;;5.43;;
19291;SDS011;9779;51.756;7.450;2022-11-12T03:05:52;6.73;;;5.13;;
19291;SDS011;9779;51.756;7.450;2022-11-12T03:08:23;5.47;;;4.93;;
19291;SDS011;9779;51.756;7.450;2022-11-12T03:10:48;5.97;;;5.03;;
19291;SDS011;9779;51.756;7.450;2022-11-12T03:13:14;4.50;;;4.13;;
19291;SDS011;9779;51.756;7.450;2022-11-12T03:15:40;5.03;;;4.63;;
19291;SDS011;9779;51.756;7.450;2022-11-12T03:18:06;4.20;;;3.90;;
19291;SDS011;9779;51.756;7.450;2022-11-12T03:20:31;5.30;;;4.10;;
19291;SDS011;9779;51.756;7.450;2022-11-12T03:23:03;4.13;;;3.80;;
19291;SDS011;9779;51.756;7.450;2022-11-12T03:25:30;4.73;;;4.10;;
19291;SDS011;9779;51.756;7.450;2022-11-12T03:28:00;4.13;;;3.93;;
19291;SDS011;9779;51.756;7.450;2022-11-12T03:30:34;4.90;;;4.50;;
19291;SDS011;9779;51.756;7.450;2022-11-12T03:33:01;4.87;;;4.47;;
19291;SDS011;9779;51.756;7.450;2022-11-12T03:35:28;6.17;;;4.70;;
19291;SDS011;9779;51.756;7.450;2022-11-12T03:37:54;4.70;;;4.40;;
19291;SDS011;9779;51.756;7.450;2022-11-12T03:40:21;4.87;;;4.47;;
19291;SDS011;9779;51.756;7.450;2022-11-12T03:42:48;5.00;;;4.60;;
19291;SDS011;9779;51.756;7.450;2022-11-12T03:45:15;5.10;;;4.70;;
19291;SDS011;9779;51.756;7.450;2022-11-12T03:47:43;4.33;;;4.03;;
19291;SDS011;9779;51.756;7.450;2022-11-12T03:50:10;5.20;;;4.40;;
19291;SDS011;9779;51.756;7.450;2022-11-12T03:52:37;4.93;;;4.10;;
19291;SDS011;9779;51.756;7.450;2022-11-12T03:55:04;5.10;;;3.97;;
19291;SDS011;9779;51.756;7.450;2022-11-12T03:57:30;4.90;;;4.20;;
19291;SDS011;9779;51.756;7.450;2022-11-12T03:59:56;4.80;;;4.40;;
19291;SDS011;9779;51.756;7.450;2022-11-12T04:02:22;5.30;;;3.60;;
19291;SDS011;9779;51.756;7.450;2022-11-12T04:04:49;4.67;;;4.27;;
19291;SDS011;9779;51.756;7.450;2022-11-12T04:07:33;4.87;;;4.40;;
19291;SDS011;9779;51.756;7.450;2022-11-12T04:10:17;4.67;;;4.27;;
19291;SDS011;9779;51.756;7.450;2022-11-12T04:12:43;8.50;;;4.20;;
19291;SDS011;9779;51.756;7.450;2022-11-12T04:15:27;4.10;;;3.80;;
19291;SDS011;9779;51.756;7.450;2022-11-12T04:17:54;4.63;;;4.23;;
19291;SDS011;9779;51.756;7.450;2022-11-12T04:20:38;4.60;;;4.20;;
19291;SDS011;9779;51.756;7.450;2022-11-12T04:23:31;5.17;;;4.70;;
19291;SDS011;9779;51.756;7.450;2022-11-12T04:25:56;5.17;;;4.60;;
19291;SDS011;9779;51.756;7.450;2022-11-12T04:28:41;5.10;;;4.73;;
19291;SDS011;9779;51.756;7.450;2022-11-12T04:31:30;5.53;;;4.80;;
19291;SDS011;9779;51.756;7.450;2022-11-12T04:33:56;4.60;;;4.23;;
19291;SDS011;9779;51.756;7.450;2022-11-12T04:36:41;4.53;;;4.13;;
19291;SDS011;9779;51.756;7.450;2022-11-12T04:39:07;5.00;;;4.60;;
19291;SDS011;9779;51.756;7.450;2022-11-12T04:41:32;8.43;;;4.60;;
19291;SDS011;9779;51.756;7.450;2022-11-12T04:44:17;4.30;;;4.00;;
19291;SDS011;9779;51.756;7.450;2022-11-12T04:47:01;4.83;;;3.53;;
19291;SDS011;9779;51.756;7.450;2022-11-12T04:49:26;6.03;;;4.37;;
19291;SDS011;9779;51.756;7.450;2022-11-12T04:51:52;5.70;;;4.00;;
19291;SDS011;9779;51.756;7.450;2022-11-12T04:54:29;4.33;;;4.03;;
19291;SDS011;9779;51.756;7.450;2022-11-12T04:56:55;6.00;;;5.07;;
19291;SDS011;9779;51.756;7.450;2022-11-12T04:59:21;5.10;;;4.80;;
19291;SDS011;9779;51.756;7.450;2022-11-12T05:01:46;4.90;;;3.87;;
19291;SDS011;9779;51.756;7.450;2022-11-12T05:04:12;7.63;;;4.37;;
19291;SDS011;9779;51.756;7.450;2022-11-12T05:06:38;8.03;;;4.80;;
19291;SDS011;9779;51.756;7.450;2022-11-12T05:09:15;5.10;;;4.70;;
19291;SDS011;9779;51.756;7.450;2022-11-12T05:11:42;4.97;;;4.47;;
19291;SDS011;9779;51.756;7.450;2022-11-12T05:14:07;4.93;;;4.17;;
19291;SDS011;9779;51.756;7.450;2022-11-12T05:16:33;4.83;;;4.53;;
19291;SDS011;9779;51.756;7.450;2022-11-12T05:18:58;4.70;;;3.90;;
19291;SDS011;9779;51.756;7.450;2022-11-12T05:21:24;4.43;;;4.13;;
19291;SDS011;9779;51.756;7.450;2022-11-12T05:24:08;4.40;;;4.00;;
19291;SDS011;9779;51.756;7.450;2022-11-12T05:26:34;5.53;;;4.43;;
19291;SDS011;9779;51.756;7.450;2022-11-12T05:28:59;5.47;;;4.97;;
19291;SDS011;9779;51.756;7.450;2022-11-12T05:31:25;6.87;;;4.40;;
19291;SDS011;9779;51.756;7.450;2022-11-12T05:33:50;5.47;;;4.83;;
19291;SDS011;9779;51.756;7.450;2022-11-12T05:36:16;4.83;;;4.43;;
19291;SDS011;9779;51.756;7.450;2022-11-12T05:38:41;5.03;;;4.10;;
19291;SDS011;9779;51.756;7.450;2022-11-12T05:41:07;4.40;;;4.10;;
19291;SDS011;9779;51.756;7.450;2022-11-12T05:43:32;4.77;;;4.47;;
19291;SDS011;9779;51.756;7.450;2022-11-12T05:45:58;8.57;;;4.50;;
19291;SDS011;9779;51.756;7.450;2022-11-12T05:48:23;4.67;;;4.33;;
19291;SDS011;9779;51.756;7.450;2022-11-12T05:50:52;5.13;;;4.73;;
19291;SDS011;9779;51.756;7.450;2022-11-12T05:53:18;4.70;;;4.30;;
19291;SDS011;9779;51.756;7.450;2022-11-12T05:55:43;5.57;;;5.10;;
19291;SDS011;9779;51.756;7.450;2022-11-12T05:58:09;9.67;;;4.43;;
19291;SDS011;9779;51.756;7.450;2022-11-12T06:00:35;5.83;;;3.93;;
19291;SDS011;9779;51.756;7.450;2022-11-12T06:03:02;8.83;;;4.30;;
19291;SDS011;9779;51.756;7.450;2022-11-12T06:05:29;6.23;;;4.40;;
19291;SDS011;9779;51.756;7.450;2022-11-12T06:07:55;5.07;;;3.83;;
19291;SDS011;9779;51.756;7.450;2022-11-12T06:10:21;4.47;;;3.83;;
19291;SDS011;9779;51.756;7.450;2022-11-12T06:12:47;4.37;;;4.00;;
19291;SDS011;9779;51.756;7.450;2022-11-12T06:15:13;6.90;;;3.90;;
19291;SDS011;9779;51.756;7.450;2022-11-12T06:17:39;5.30;;;4.03;;
19291;SDS011;9779;51.756;7.450;2022-11-12T06:20:04;5.03;;;4.47;;
19291;SDS011;9779;51.756;7.450;2022-11-12T06:22:30;4.93;;;4.60;;
19291;SDS011;9779;51.756;7.450;2022-11-12T06:24:56;4.40;;;4.10;;
19291;SDS011;9779;51.756;7.450;2022-11-12T06:27:21;5.10;;;4.30;;
19291;SDS011;9779;51.756;7.450;2022-11-12T06:29:48;4.40;;;4.10;;
19291;SDS011;9779;51.756;7.450;2022-11-12T06:32:13;4.13;;;3.83;;
19291;SDS011;9779;51.756;7.450;2022-11-12T06:34:39;5.47;;;5.07;;
19291;SDS011;9779;51.756;7.450;2022-11-12T06:37:05;5.27;;;4.67;;
19291;SDS011;9779;51.756;7.450;2022-11-12T06:39:30;6.00;;;4.43;;
19291;SDS011;9779;51.756;7.450;2022-11-12T06:41:56;5.33;;;4.90;;
19291;SDS011;9779;51.756;7.450;2022-11-12T06:44:21;5.57;;;5.07;;
19291;SDS011;9779;51.756;7.450;2022-11-12T06:46:47;5.07;;;4.57;;
19291;SDS011;9779;51.756;7.450;2022-11-12T06:49:15;5.50;;;5.10;;
19291;SDS011;9779;51.756;7.450;2022-11-12T06:51:41;6.47;;;5.80;;
19291;SDS011;9779;51.756;7.450;2022-11-12T06:54:07;5.27;;;4.87;;
19291;SDS011;9779;51.756;7.450;2022-11-12T06:56:32;8.63;;;4.23;;
19291;SDS011;9779;51.756;7.450;2022-11-12T06:58:58;4.97;;;4.60;;
19291;SDS011;9779;51.756;7.450;2022-11-12T07:01:23;5.33;;;4.80;;
19291;SDS011;9779;51.756;7.450;2022-11-12T07:03:52;4.97;;;4.67;;
19291;SDS011;9779;51.756;7.450;2022-11-12T07:06:18;4.47;;;4.07;;
19291;SDS011;9779;51.756;7.450;2022-11-12T07:08:47;10.40;;;5.40;;
19291;SDS011;9779;51.756;7.450;2022-11-12T07:11:14;5.73;;;5.23;;
19291;SDS011;9779;51.756;7.450;2022-11-12T07:13:41;15.87;;;6.70;;
19291;SDS011;9779;51.756;7.450;2022-11-12T07:16:10;9.70;;;7.17;;
19291;SDS011;9779;51.756;7.450;2022-11-12T07:18:37;6.83;;;6.07;;
19291;SDS011;9779;51.756;7.450;2022-11-12T07:21:07;13.77;;;7.13;;
19291;SDS011;9779;51.756;7.450;2022-11-12T07:23:34;6.10;;;5.60;;
19291;SDS011;9779;51.756;7.450;2022-11-12T07:26:05;5.97;;;5.57;;
19291;SDS011;9779;51.756;7.450;2022-11-12T07:28:32;7.33;;;6.60;;
19291;SDS011;9779;51.756;7.450;2022-11-12T07:30:59;8.70;;;7.10;;
19291;SDS011;9779;51.756;7.450;2022-11-12T07:33:27;8.77;;;7.83;;
19291;SDS011;9779;51.756;7.450;2022-11-12T07:35:59;7.27;;;6.67;;
19291;SDS011;9779;51.756;7.450;2022-11-12T07:38:34;9.57;;;8.57;;
19291;SDS011;9779;51.756;7.450;2022-11-12T07:41:15;9.97;;;8.03;;
19291;SDS011;9779;51.756;7.450;2022-11-12T07:43:43;17.17;;;8.40;;
19291;SDS011;9779;51.756;7.450;2022-11-12T07:46:11;9.90;;;8.70;;
19291;SDS011;9779;51.756;7.450;2022-11-12T07:48:37;15.90;;;8.53;;
19291;SDS011;9779;51.756;7.450;2022-11-12T07:51:05;14.03;;;9.17;;
19291;SDS011;9779;51.756;7.450;2022-11-12T07:53:39;8.63;;;7.73;;
19291;SDS011;9779;51.756;7.450;2022-11-12T07:56:05;11.33;;;8.00;;
19291;SDS011;9779;51.756;7.450;2022-11-12T07:58:33;14.83;;;8.47;;
19291;SDS011;9779;51.756;7.450;2022-11-12T08:01:19;8.47;;;7.77;;
19291;SDS011;9779;51.756;7.450;2022-11-12T08:03:52;7.17;;;6.43;;
19291;SDS011;9779;51.756;7.450;2022-11-12T08:06:18;7.00;;;6.43;;
19291;SDS011;9779;51.756;7.450;2022-11-12T08:08:44;6.90;;;6.30;;
19291;SDS011;9779;51.756;7.450;2022-11-12T08:11:09;5.67;;;5.27;;
19291;SDS011;9779;51.756;7.450;2022-11-12T08:13:35;6.70;;;6.10;;
19291;SDS011;9779;51.756;7.450;2022-11-12T08:16:00;7.60;;;6.23;;
19291;SDS011;9779;51.756;7.450;2022-11-12T08:18:26;7.20;;;6.53;;
19291;SDS011;9779;51.756;7.450;2022-11-12T08:20:52;6.90;;;6.20;;
19291;SDS011;9779;51.756;7.450;2022-11-12T08:23:23;10.20;;;6.53;;
19291;SDS011;9779;51.756;7.450;2022-11-12T08:25:48;7.43;;;6.10;;
19291;SDS011;9779;51.756;7.450;2022-11-12T08:28:14;7.73;;;5.97;;
19291;SDS011;9779;51.756;7.450;2022-11-12T08:30:39;5.73;;;5.10;;
19291;SDS011;9779;51.756;7.450;2022-11-12T08:33:05;7.07;;;5.83;;
19291;SDS011;9779;51.756;7.450;2022-11-12T08:35:31;6.47;;;5.97;;
19291;SDS011;9779;51.756;7.450;2022-11-12T08:37:58;6.30;;;5.23;;
19291;SDS011;9779;51.756;7.450;2022-11-12T08:40:25;7.50;;;5.90;;
19291;SDS011;9779;51.756;7.450;2022-11-12T08:43:10;9.60;;;6.07;;
19291;SDS011;9779;51.756;7.450;2022-11-12T08:45:37;6.43;;;5.80;;
19291;SDS011;9779;51.756;7.450;2022-11-12T08:48:05;9.17;;;6.50;;
19291;SDS011;9779;51.756;7.450;2022-11-12T08:50:32;6.57;;;6.07;;
19291;SDS011;9779;51.756;7.450;2022-11-12T08:52:59;6.40;;;5.80;;
19291;SDS011;9779;51.756;7.450;2022-11-12T08:55:26;6.60;;;6.10;;
19291;SDS011;9779;51.756;7.450;2022-11-12T08:57:52;17.73;;;8.17;;
19291;SDS011;9779;51.756;7.450;2022-11-12T09:00:18;8.80;;;7.23;;
19291;SDS011;9779;51.756;7.450;2022-11-12T09:02:44;8.70;;;7.93;;
19291;SDS011;9779;51.756;7.450;2022-11-12T09:05:09;6.03;;;5.50;;
19291;SDS011;9779;51.756;7.450;2022-11-12T09:07:35;7.80;;;7.20;;
19291;SDS011;9779;51.756;7.450;2022-11-12T09:10:00;8.70;;;6.97;;
19291;SDS011;9779;51.756;7.450;2022-11-12T09:12:26;8.27;;;7.20;;
19291;SDS011;9779;51.756;7.450;2022-11-12T09:14:52;8.60;;;7.57;;
19291;SDS011;9779;51.756;7.450;2022-11-12T09:17:18;6.00;;;5.60;;
19291;SDS011;9779;51.756;7.450;2022-11-12T09:19:43;10.97;;;7.17;;
19291;SDS011;9779;51.756;7.450;2022-11-12T09:22:09;8.53;;;6.73;;
19291;SDS011;9779;51.756;7.450;2022-11-12T09:24:34;8.03;;;6.57;;
19291;SDS011;9779;51.756;7.450;2022-11-12T09:27:00;12.23;;;6.27;;
19291;SDS011;9779;51.756;7.450;2022-11-12T09:29:25;7.70;;;6.17;;
19291;SDS011;9779;51.756;7.450;2022-11-12T09:31:51;6.17;;;5.67;;
19291;SDS011;9779;51.756;7.450;2022-11-12T09:34:16;8.47;;;7.47;;
19291;SDS011;9779;51.756;7.450;2022-11-12T09:36:42;10.37;;;7.93;;
19291;SDS011;9779;51.756;7.450;2022-11-12T09:39:07;7.53;;;6.77;;
19291;SDS011;9779;51.756;7.450;2022-11-12T09:41:33;9.60;;;5.93;;
19291;SDS011;9779;51.756;7.450;2022-11-12T09:44:01;7.33;;;6.03;;
19291;SDS011;9779;51.756;7.450;2022-11-12T09:46:44;9.70;;;6.07;;
19291;SDS011;9779;51.756;7.450;2022-11-12T09:49:31;6.27;;;5.67;;
19291;SDS011;9779;51.756;7.450;2022-11-12T09:54:30;3.20;;;3.00;;
19291;SDS011;9779;51.756;7.450;2022-11-12T09:56:58;5.40;;;3.67;;
19291;SDS011;9779;51.756;7.450;2022-11-12T09:59:32;4.20;;;3.90;;
19291;SDS011;9779;51.756;7.450;2022-11-12T10:02:11;9.77;;;4.87;;
19291;SDS011;9779;51.756;7.450;2022-11-12T10:05:21;5.07;;;4.67;;
19291;SDS011;9779;51.756;7.450;2022-11-12T10:10:52;12.87;;;6.87;;
19291;SDS011;9779;51.756;7.450;2022-11-12T10:16:56;8.43;;;7.70;;
19291;SDS011;9779;51.756;7.450;2022-11-12T10:24:38;9.70;;;7.93;;
19291;SDS011;9779;51.756;7.450;2022-11-12T10:27:15;11.83;;;6.83;;
19291;SDS011;9779;51.756;7.450;2022-11-12T10:32:18;8.97;;;8.07;;
19291;SDS011;9779;51.756;7.450;2022-11-12T10:34:43;10.43;;;9.30;;
19291;SDS011;9779;51.756;7.450;2022-11-12T10:39:52;9.47;;;8.60;;
19291;SDS011;9779;51.756;7.450;2022-11-12T10:42:19;9.17;;;8.40;;
19291;SDS011;9779;51.756;7.450;2022-11-12T10:44:46;9.50;;;8.67;;
19291;SDS011;9779;51.756;7.450;2022-11-12T10:50:05;8.87;;;7.83;;
19291;SDS011;9779;51.756;7.450;2022-11-12T10:52:52;8.40;;;7.60;;
19291;SDS011;9779;51.756;7.450;2022-11-12T10:56:21;8.90;;;8.00;;
19291;SDS011;9779;51.756;7.450;2022-11-12T10:58:22;9.73;;;7.43;;
19291;SDS011;9779;51.756;7.450;2022-11-12T11:03:22;11.90;;;8.30;;
19291;SDS011;9779;51.756;7.450;2022-11-12T11:05:57;11.00;;;7.73;;
19291;SDS011;9779;51.756;7.450;2022-11-12T11:08:33;8.10;;;7.17;;
19291;SDS011;9779;51.756;7.450;2022-11-12T11:11:09;8.80;;;8.07;;
19291;SDS011;9779;51.756;7.450;2022-11-12T11:13:42;7.03;;;6.40;;
19291;SDS011;9779;51.756;7.450;2022-11-12T11:16:16;7.40;;;6.77;;
19291;SDS011;9779;51.756;7.450;2022-11-12T11:18:51;7.87;;;6.20;;
19291;SDS011;9779;51.756;7.450;2022-11-12T11:21:29;5.60;;;5.07;;
19291;SDS011;9779;51.756;7.450;2022-11-12T11:27:17;5.63;;;5.13;;
19291;SDS011;9779;51.756;7.450;2022-11-12T11:35:12;5.13;;;4.43;;
19291;SDS011;9779;51.756;7.450;2022-11-12T11:37:50;4.90;;;4.47;;
19291;SDS011;9779;51.756;7.450;2022-11-12T11:40:29;4.63;;;4.20;;
19291;SDS011;9779;51.756;7.450;2022-11-12T11:45:54;6.00;;;4.00;;
19291;SDS011;9779;51.756;7.450;2022-11-12T11:57:27;4.27;;;3.90;;
19291;SDS011;9779;51.756;7.450;2022-11-12T12:11:11;4.57;;;4.17;;
19291;SDS011;9779;51.756;7.450;2022-11-12T12:16:40;7.20;;;4.00;;
19291;SDS011;9779;51.756;7.450;2022-11-12T12:19:20;5.60;;;4.17;;
19291;SDS011;9779;51.756;7.450;2022-11-12T12:21:49;6.60;;;4.20;;
19291;SDS011;9779;51.756;7.450;2022-11-12T12:24:17;4.40;;;4.07;;
19291;SDS011;9779;51.756;7.450;2022-11-12T12:29:24;9.77;;;4.00;;
19291;SDS011;9779;51.756;7.450;2022-11-12T12:32:13;3.73;;;3.50;;
19291;SDS011;9779;51.756;7.450;2022-11-12T12:34:44;4.80;;;4.17;;
19291;SDS011;9779;51.756;7.450;2022-11-12T12:47:56;7.93;;;3.17;;
19291;SDS011;9779;51.756;7.450;2022-11-12T12:50:24;4.53;;;3.97;;
19291;SDS011;9779;51.756;7.450;2022-11-12T12:55:49;4.17;;;3.87;;
19291;SDS011;9779;51.756;7.450;2022-11-12T12:58:22;6.20;;;3.97;;
19291;SDS011;9779;51.756;7.450;2022-11-12T13:01:01;3.83;;;3.53;;
19291;SDS011;9779;51.756;7.450;2022-11-12T13:06:12;8.53;;;3.67;;
19291;SDS011;9779;51.756;7.450;2022-11-12T13:08:45;6.47;;;4.30;;
19291;SDS011;9779;51.756;7.450;2022-11-12T13:17:09;4.40;;;4.00;;
19291;SDS011;9779;51.756;7.450;2022-11-12T13:37:40;4.27;;;3.47;;
19291;SDS011;9779;51.756;7.450;2022-11-12T13:40:08;5.57;;;3.43;;
19291;SDS011;9779;51.756;7.450;2022-11-12T13:42:38;3.70;;;3.20;;
19291;SDS011;9779;51.756;7.450;2022-11-12T13:45:14;5.00;;;3.43;;
19291;SDS011;9779;51.756;7.450;2022-11-12T13:47:41;3.70;;;3.10;;
19291;SDS011;9779;51.756;7.450;2022-11-12T13:50:09;3.03;;;2.80;;
19291;SDS011;9779;51.756;7.450;2022-11-12T13:52:40;7.40;;;3.13;;
19291;SDS011;9779;51.756;7.450;2022-11-12T13:55:11;2.90;;;2.70;;
19291;SDS011;9779;51.756;7.450;2022-11-12T13:57:38;3.10;;;2.80;;
19291;SDS011;9779;51.756;7.450;2022-11-12T14:00:08;2.70;;;2.50;;
19291;SDS011;9779;51.756;7.450;2022-11-12T14:02:44;5.93;;;2.90;;
19291;SDS011;9779;51.756;7.450;2022-11-12T14:05:15;3.00;;;2.67;;
19291;SDS011;9779;51.756;7.450;2022-11-12T14:07:51;3.13;;;2.90;;
19291;SDS011;9779;51.756;7.450;2022-11-12T14:19:07;4.53;;;2.90;;
19291;SDS011;9779;51.756;7.450;2022-11-12T14:21:36;2.67;;;2.43;;
19291;SDS011;9779;51.756;7.450;2022-11-12T14:24:02;4.03;;;2.60;;
19291;SDS011;9779;51.756;7.450;2022-11-12T14:26:35;3.03;;;2.43;;
19291;SDS011;9779;51.756;7.450;2022-11-12T14:29:06;2.90;;;2.70;;
19291;SDS011;9779;51.756;7.450;2022-11-12T14:31:38;4.70;;;2.47;;
19291;SDS011;9779;51.756;7.450;2022-11-12T14:34:21;4.20;;;2.80;;
19291;SDS011;9779;51.756;7.450;2022-11-12T14:36:51;2.90;;;2.67;;
19291;SDS011;9779;51.756;7.450;2022-11-12T14:39:19;2.50;;;2.30;;
19291;SDS011;9779;51.756;7.450;2022-11-12T14:41:46;2.83;;;2.63;;
19291;SDS011;9779;51.756;7.450;2022-11-12T14:44:21;2.80;;;2.40;;
19291;SDS011;9779;51.756;7.450;2022-11-12T14:46:52;2.73;;;2.50;;
19291;SDS011;9779;51.756;7.450;2022-11-12T14:49:20;2.33;;;2.20;;
19291;SDS011;9779;51.756;7.450;2022-11-12T14:52:31;3.60;;;2.50;;
19291;SDS011;9779;51.756;7.450;2022-11-12T14:55:03;3.77;;;2.47;;
19291;SDS011;9779;51.756;7.450;2022-11-12T14:57:32;2.30;;;2.20;;
19291;SDS011;9779;51.756;7.450;2022-11-12T14:59:58;3.80;;;2.03;;
19291;SDS011;9779;51.756;7.450;2022-11-12T15:02:40;4.83;;;2.67;;
19291;SDS011;9779;51.756;7.450;2022-11-12T15:05:24;5.33;;;2.70;;
19291;SDS011;9779;51.756;7.450;2022-11-12T15:10:28;7.27;;;2.83;;
19291;SDS011;9779;51.756;7.450;2022-11-12T15:13:14;4.93;;;2.90;;
19291;SDS011;9779;51.756;7.450;2022-11-12T15:15:53;3.13;;;2.70;;
19291;SDS011;9779;51.756;7.450;2022-11-12T15:18:25;2.53;;;2.33;;
19291;SDS011;9779;51.756;7.450;2022-11-12T15:23:48;3.17;;;2.87;;
19291;SDS011;9779;51.756;7.450;2022-11-12T15:26:30;5.63;;;3.47;;
19291;SDS011;9779;51.756;7.450;2022-11-12T15:28:58;3.33;;;3.03;;
19291;SDS011;9779;51.756;7.450;2022-11-12T15:31:46;3.40;;;2.80;;
19291;SDS011;9779;51.756;7.450;2022-11-12T15:34:28;3.30;;;2.90;;
19291;SDS011;9779;51.756;7.450;2022-11-12T15:36:56;4.47;;;3.10;;
19291;SDS011;9779;51.756;7.450;2022-11-12T15:39:25;4.33;;;3.90;;
19291;SDS011;9779;51.756;7.450;2022-11-12T15:41:59;4.03;;;3.73;;
19291;SDS011;9779;51.756;7.450;2022-11-12T15:44:36;5.20;;;3.77;;
19291;SDS011;9779;51.756;7.450;2022-11-12T15:47:02;4.73;;;4.23;;
19291;SDS011;9779;51.756;7.450;2022-11-12T15:49:28;5.73;;;5.33;;
19291;SDS011;9779;51.756;7.450;2022-11-12T15:51:53;6.23;;;5.73;;
19291;SDS011;9779;51.756;7.450;2022-11-12T15:54:19;6.77;;;5.00;;
19291;SDS011;9779;51.756;7.450;2022-11-12T15:56:44;5.93;;;5.43;;
19291;SDS011;9779;51.756;7.450;2022-11-12T15:59:14;5.80;;;5.27;;
19291;SDS011;9779;51.756;7.450;2022-11-12T16:01:41;11.83;;;9.20;;
19291;SDS011;9779;51.756;7.450;2022-11-12T16:04:08;13.70;;;9.73;;
19291;SDS011;9779;51.756;7.450;2022-11-12T16:06:35;11.27;;;10.00;;
19291;SDS011;9779;51.756;7.450;2022-11-12T16:09:01;9.33;;;8.43;;
19291;SDS011;9779;51.756;7.450;2022-11-12T16:11:26;11.33;;;8.50;;
19291;SDS011;9779;51.756;7.450;2022-11-12T16:14:05;8.90;;;8.17;;
19291;SDS011;9779;51.756;7.450;2022-11-12T16:16:35;8.83;;;8.07;;
19291;SDS011;9779;51.756;7.450;2022-11-12T16:19:03;8.13;;;6.93;;
19291;SDS011;9779;51.756;7.450;2022-11-12T16:21:38;8.30;;;7.10;;
19291;SDS011;9779;51.756;7.450;2022-11-12T16:24:04;6.10;;;5.60;;
19291;SDS011;9779;51.756;7.450;2022-11-12T16:26:30;7.20;;;6.50;;
19291;SDS011;9779;51.756;7.450;2022-11-12T16:28:56;8.03;;;7.37;;
19291;SDS011;9779;51.756;7.450;2022-11-12T16:31:22;7.90;;;7.20;;
19291;SDS011;9779;51.756;7.450;2022-11-12T16:33:48;8.07;;;7.47;;
19291;SDS011;9779;51.756;7.450;2022-11-12T16:36:14;8.33;;;7.50;;
19291;SDS011;9779;51.756;7.450;2022-11-12T16:38:40;9.63;;;7.30;;
19291;SDS011;9779;51.756;7.450;2022-11-12T16:41:09;8.37;;;7.77;;
19291;SDS011;9779;51.756;7.450;2022-11-12T16:43:37;8.73;;;8.03;;
19291;SDS011;9779;51.756;7.450;2022-11-12T16:46:11;9.73;;;8.73;;
19291;SDS011;9779;51.756;7.450;2022-11-12T16:48:39;9.80;;;8.80;;
19291;SDS011;9779;51.756;7.450;2022-11-12T16:51:05;10.07;;;9.07;;
19291;SDS011;9779;51.756;7.450;2022-11-12T16:53:30;11.93;;;8.57;;
19291;SDS011;9779;51.756;7.450;2022-11-12T16:55:56;12.07;;;10.77;;
19291;SDS011;9779;51.756;7.450;2022-11-12T16:58:21;15.60;;;10.83;;
19291;SDS011;9779;51.756;7.450;2022-11-12T17:00:47;9.87;;;9.07;;
19291;SDS011;9779;51.756;7.450;2022-11-12T17:03:16;11.20;;;8.97;;
19291;SDS011;9779;51.756;7.450;2022-11-12T17:05:41;9.97;;;8.97;;
19291;SDS011;9779;51.756;7.450;2022-11-12T17:08:07;17.37;;;12.73;;
19291;SDS011;9779;51.756;7.450;2022-11-12T17:10:33;19.07;;;14.47;;